KGSO/GSO METAR and TAF weather

Enter ICAO airport designator
Station Type Date Time Source
KGSO METAR 2020/04/02 03:54 UTC NOAA

KGSO 020354Z 30004KT 10SM CLR 06/02 A2997 RMK AO2 SLP149 T00610017


Station Type Date Time Source
KGSO Decoded METAR 2020/04/02 03:54 UTC NOAA

PIEDMONT TRIAD INTERNATIONAL AIRPORT , NC, United States (KGSO) 36-06N 079-57W 275M
Apr 01, 2020 - 11:54 PM EDT / 2020.04.02 0354 UTC
Wind: from the WNW (300 degrees) at 5 MPH (4 KT):0
Visibility: 10 mile(s):0
Sky conditions: clear
Temperature: 43.0 F (6.1 C)
Dew Point: 35.1 F (1.7 C)
Relative Humidity: 73%
Pressure (altimeter): 29.97 in. Hg (1014 hPa)
ob: KGSO 020354Z 30004KT 10SM CLR 06/02 A2997 RMK AO2 SLP149 T00610017
cycle: 4

Station Type Date Time Source
KGSO TAF 2020/04/01 18:22 UTC NOAA

TAF KGSO 011720Z 0118/0218 35008G14KT P6SM BKN040
FM012100 33007KT P6SM SCT100
FM020700 33005KT P6SM SKC

Example: see airport list